createdAt,value
2023-01-07T00:02:34.000Z,100695.69
2023-01-07T00:07:35.000Z,100684.3
2023-01-07T00:12:35.000Z,100679.42
2023-01-07T00:17:34.000Z,100685.96
2023-01-07T00:22:35.000Z,100693.04
2023-01-07T00:27:34.000Z,100699
2023-01-07T00:32:35.000Z,100695
2023-01-07T00:37:34.000Z,100692.73
2023-01-07T00:42:34.000Z,100696.57
2023-01-07T00:47:35.000Z,100698.69
2023-01-07T00:52:34.000Z,100690.34
2023-01-07T00:57:35.000Z,100693.79
2023-01-07T01:02:34.000Z,100696.47
2023-01-07T01:07:35.000Z,100692.83
2023-01-07T01:12:34.000Z,100707.59
2023-01-07T01:17:34.000Z,100707.59
2023-01-07T01:22:35.000Z,100712.02
2023-01-07T01:27:34.000Z,100722.89
2023-01-07T01:32:35.000Z,100729.2
2023-01-07T01:37:34.000Z,100729.7
2023-01-07T01:42:35.000Z,100738.21
2023-01-07T01:47:35.000Z,100743.99
2023-01-07T01:52:34.000Z,100746.07
2023-01-07T01:57:35.000Z,100751.14
2023-01-07T02:02:34.000Z,100770.42
2023-01-07T02:07:34.000Z,100774.45
2023-01-07T02:12:35.000Z,100772.53
2023-01-07T02:17:34.000Z,100771.69
2023-01-07T02:22:34.000Z,100779.9
2023-01-07T02:27:35.000Z,100779.9
2023-01-07T02:32:34.000Z,100785.45
2023-01-07T02:37:35.000Z,100792.67
2023-01-07T02:42:34.000Z,100801.08
2023-01-07T02:47:34.000Z,100806.75
2023-01-07T02:52:35.000Z,100809.06
2023-01-07T02:57:35.000Z,100807.96
2023-01-07T03:07:36.000Z,100808.98
2023-01-07T03:12:34.000Z,100823.73
2023-01-07T03:17:35.000Z,100830.34
2023-01-07T03:22:35.000Z,100836.97
2023-01-07T03:27:34.000Z,100836.97
2023-01-07T03:32:34.000Z,100840.25
2023-01-07T03:37:35.000Z,100847.64
2023-01-07T03:42:35.000Z,100848.88
2023-01-07T03:47:35.000Z,100855.7
2023-01-07T03:52:35.000Z,100862.31
2023-01-07T03:57:35.000Z,100862.8
2023-01-07T04:02:34.000Z,100861.57
2023-01-07T04:07:34.000Z,100862.57
2023-01-07T04:12:35.000Z,100870.11
2023-01-07T04:17:35.000Z,100875.56
2023-01-07T04:22:35.000Z,100870.74
2023-01-07T04:27:35.000Z,100877.76
2023-01-07T04:32:35.000Z,100878.69
2023-01-07T04:37:35.000Z,100878.69
2023-01-07T04:42:34.000Z,100881.85
2023-01-07T04:47:35.000Z,100888.53
2023-01-07T04:52:34.000Z,100893.91
2023-01-07T04:57:34.000Z,100897.7
2023-01-07T05:02:34.000Z,100897.25
2023-01-07T05:07:35.000Z,100898.82
2023-01-07T05:12:34.000Z,100902.14
2023-01-07T05:17:35.000Z,100908.87
2023-01-07T05:22:34.000Z,100914.15
2023-01-07T05:27:34.000Z,100921.53
2023-01-07T05:32:35.000Z,100923.8
2023-01-07T05:37:34.000Z,100927.43
2023-01-07T05:42:35.000Z,100940.39
2023-01-07T05:47:34.000Z,100944.88
2023-01-07T05:52:35.000Z,100944.88
2023-01-07T05:57:35.000Z,100950.43
2023-01-07T06:02:35.000Z,100963.94
2023-01-07T06:07:35.000Z,100964.13
2023-01-07T06:12:34.000Z,100985.16
2023-01-07T06:17:35.000Z,100995.35
2023-01-07T06:22:35.000Z,101004.58
2023-01-07T06:27:35.000Z,101015.96
2023-01-07T06:32:34.000Z,101025.86
2023-01-07T06:37:35.000Z,101033.53
2023-01-07T06:42:35.000Z,101041.48
2023-01-07T06:47:35.000Z,101040.29
2023-01-07T06:52:34.000Z,101040.29
2023-01-07T06:57:35.000Z,101052.3
2023-01-07T07:02:35.000Z,101062.31
2023-01-07T07:07:35.000Z,101067.21
2023-01-07T07:12:35.000Z,101073.62
2023-01-07T07:17:35.000Z,101074.51
2023-01-07T07:22:35.000Z,101077.31
2023-01-07T07:27:35.000Z,101076.44
2023-01-07T07:32:35.000Z,101078.71
2023-01-07T07:37:35.000Z,101079.57
2023-01-07T07:42:35.000Z,101079.64
2023-01-07T07:47:35.000Z,101084.01
2023-01-07T07:52:34.000Z,101089
2023-01-07T07:57:35.000Z,101094.86
2023-01-07T08:02:34.000Z,101094.86
2023-01-07T08:07:44.000Z,101101.49
2023-01-07T08:12:34.000Z,101097.69
2023-01-07T08:17:35.000Z,101109.12
2023-01-07T08:22:34.000Z,101113.35
2023-01-07T08:27:35.000Z,101115.59
2023-01-07T08:32:34.000Z,101114
2023-01-07T08:37:35.000Z,101131.24
2023-01-07T08:42:35.000Z,101138.24
2023-01-07T08:47:34.000Z,101132.78
2023-01-07T08:52:35.000Z,101132.8
2023-01-07T08:57:34.000Z,101132.78
2023-01-07T09:02:35.000Z,101131.87
2023-01-07T09:07:35.000Z,101130.16
2023-01-07T09:12:35.000Z,101158.07
2023-01-07T09:17:34.000Z,101158.07
2023-01-07T09:22:35.000Z,101164.74
2023-01-07T09:27:35.000Z,101162.54
2023-01-07T09:32:35.000Z,101158.36
2023-01-07T09:37:35.000Z,101162.1
2023-01-07T09:42:35.000Z,101166.66
2023-01-07T09:47:35.000Z,101175.43
2023-01-07T09:52:34.000Z,101171.26
2023-01-07T09:57:35.000Z,101168.22
2023-01-07T10:02:35.000Z,101167.45
2023-01-07T10:07:35.000Z,101169.5
2023-01-07T10:12:34.000Z,101168.97
2023-01-07T10:17:35.000Z,101177.51
2023-01-07T10:22:34.000Z,101179
2023-01-07T10:27:34.000Z,101178.95
2023-01-07T10:32:35.000Z,101178.95
2023-01-07T10:37:35.000Z,101175.85
2023-01-07T10:42:35.000Z,101183.85
2023-01-07T10:47:34.000Z,101189.84
2023-01-07T10:52:34.000Z,101187.83
2023-01-07T10:57:35.000Z,101186.88
2023-01-07T11:02:35.000Z,101184.53
2023-01-07T11:07:35.000Z,101187.26
2023-01-07T11:12:35.000Z,101186.66
2023-01-07T11:17:34.000Z,101180.4
2023-01-07T11:22:34.000Z,101177.48
2023-01-07T11:32:35.000Z,101178.87
2023-01-07T11:37:35.000Z,101187.49
2023-01-07T11:42:35.000Z,101188.88
2023-01-07T11:47:35.000Z,101187.36
2023-01-07T11:52:35.000Z,101192.51
2023-01-07T11:57:35.000Z,101204.09
2023-01-07T12:02:35.000Z,101204.52
2023-01-07T12:07:34.000Z,101213.93
2023-01-07T12:12:35.000Z,101221.03
2023-01-07T12:17:34.000Z,101225.89
2023-01-07T12:22:35.000Z,101225.89
2023-01-07T12:27:34.000Z,101225.44
2023-01-07T12:32:35.000Z,101235.82
2023-01-07T12:37:34.000Z,101237.29
2023-01-07T12:42:35.000Z,101234.26
2023-01-07T12:47:44.000Z,101230.71
2023-01-07T12:52:35.000Z,101231
2023-01-07T12:57:35.000Z,101234.42
2023-01-07T13:02:35.000Z,101230.39
2023-01-07T13:07:35.000Z,101224.9
2023-01-07T13:12:52.000Z,101225.09
2023-01-07T13:17:35.000Z,101235.86
2023-01-07T13:22:35.000Z,101238.09
2023-01-07T13:27:34.000Z,101226.03
2023-01-07T13:32:35.000Z,101252.07
2023-01-07T13:37:35.000Z,101252.07
2023-01-07T13:42:34.000Z,101253.49
2023-01-07T13:47:34.000Z,101256.48
2023-01-07T13:52:35.000Z,101254.84
2023-01-07T13:57:34.000Z,101259.31
2023-01-07T14:02:35.000Z,101257.26
2023-01-07T14:07:34.000Z,101251.2
2023-01-07T14:12:35.000Z,101255.71
2023-01-07T14:17:35.000Z,101269.46
2023-01-07T14:22:35.000Z,101276.51
2023-01-07T14:27:34.000Z,101281.41
2023-01-07T14:32:35.000Z,101273.96
2023-01-07T14:37:34.000Z,101265.28
2023-01-07T14:42:35.000Z,101266.39
2023-01-07T14:47:34.000Z,101261.69
2023-01-07T14:52:34.000Z,101261.69
2023-01-07T14:57:35.000Z,101260.68
2023-01-07T15:02:35.000Z,101264.91
2023-01-07T15:07:35.000Z,101275.28
2023-01-07T15:12:35.000Z,101283.3
2023-01-07T15:17:35.000Z,101282.4
2023-01-07T15:22:35.000Z,101292
2023-01-07T15:27:35.000Z,101290.79
2023-01-07T15:32:35.000Z,101269.75
2023-01-07T15:37:34.000Z,101280.64
2023-01-07T15:42:35.000Z,101264.59
2023-01-07T15:47:34.000Z,101272.66
2023-01-07T15:52:35.000Z,101277.02
2023-01-07T15:57:35.000Z,101279.94
2023-01-07T16:02:35.000Z,101284.31
2023-01-07T16:07:35.000Z,101284.31
2023-01-07T16:12:35.000Z,101291.52
2023-01-07T16:17:34.000Z,101292.66
2023-01-07T16:22:35.000Z,101293.18
2023-01-07T16:27:35.000Z,101287.7
2023-01-07T16:32:35.000Z,101292.9
2023-01-07T16:37:35.000Z,101296.84
2023-01-07T16:42:34.000Z,101290.77
2023-01-07T16:47:35.000Z,101292.78
2023-01-07T16:52:35.000Z,101289.3
2023-01-07T16:57:35.000Z,101290.84
2023-01-07T17:02:35.000Z,101300.02
2023-01-07T17:07:35.000Z,101302.45
2023-01-07T17:12:34.000Z,101302.56
2023-01-07T17:17:35.000Z,101302.56
2023-01-07T17:22:35.000Z,101286.94
2023-01-07T17:27:35.000Z,101291.57
2023-01-07T17:32:35.000Z,101294.31
2023-01-07T17:37:35.000Z,101291.81
2023-01-07T17:42:35.000Z,101300.49
2023-01-07T17:47:35.000Z,101301.95
2023-01-07T17:52:35.000Z,101296.32
2023-01-07T17:57:34.000Z,101288.62
2023-01-07T18:02:35.000Z,101276.54
2023-01-07T18:07:35.000Z,101272.99
2023-01-07T18:12:35.000Z,101275.1
2023-01-07T18:17:34.000Z,101276.51
2023-01-07T18:22:35.000Z,101276.9
2023-01-07T18:27:35.000Z,101276.9
2023-01-07T18:32:35.000Z,101280.2
2023-01-07T18:37:35.000Z,101278.53
2023-01-07T18:42:35.000Z,101281.01
2023-01-07T18:47:35.000Z,101267.66
2023-01-07T18:52:34.000Z,101260
2023-01-07T18:57:35.000Z,101262.51
2023-01-07T19:02:35.000Z,101270.13
2023-01-07T19:07:35.000Z,101269.95
2023-01-07T19:12:35.000Z,101275.08
2023-01-07T19:17:35.000Z,101276.45
2023-01-07T19:22:35.000Z,101286.41
2023-01-07T19:27:35.000Z,101300.66
2023-01-07T19:32:34.000Z,101297.36
2023-01-07T19:37:35.000Z,101286.33
2023-01-07T19:47:35.000Z,101272.78
2023-01-07T19:52:40.000Z,101264.68
2023-01-07T19:57:38.000Z,101266.56
2023-01-07T20:02:36.000Z,101273.93
2023-01-07T20:07:35.000Z,101271.28
2023-01-07T20:12:35.000Z,101267.51
2023-01-07T20:17:36.000Z,101268.19
2023-01-07T20:22:34.000Z,101268.19
2023-01-07T20:27:35.000Z,101268.61
2023-01-07T20:32:35.000Z,101267.45
2023-01-07T20:37:35.000Z,101280.69
2023-01-07T20:42:34.000Z,101294.57
2023-01-07T20:47:35.000Z,101296.2
2023-01-07T20:52:35.000Z,101288.51
2023-01-07T20:57:35.000Z,101284.05
2023-01-07T21:02:35.000Z,101282.79
2023-01-07T21:07:41.000Z,101280
2023-01-07T21:12:35.000Z,101282.18
2023-01-07T21:22:35.000Z,101274.47
2023-01-07T21:27:35.000Z,101273.48
2023-01-07T21:32:35.000Z,101269.05
2023-01-07T21:37:39.000Z,101267.12
2023-01-07T21:42:34.000Z,101262.33
2023-01-07T21:52:35.000Z,101251.42
2023-01-07T21:57:35.000Z,101252.23
2023-01-07T22:02:35.000Z,101244.64
2023-01-07T22:07:34.000Z,101253.57
2023-01-07T22:12:35.000Z,101256.46
2023-01-07T22:17:34.000Z,101248.18
2023-01-07T22:22:35.000Z,101251.25
2023-01-07T22:27:35.000Z,101248.22
2023-01-07T22:32:34.000Z,101250.22
2023-01-07T22:37:35.000Z,101250.73
2023-01-07T22:42:34.000Z,101254.07
2023-01-07T22:47:35.000Z,101254.07
2023-01-07T22:52:34.000Z,101256.79
2023-01-07T22:57:35.000Z,101257.09
2023-01-07T23:02:35.000Z,101256.1
2023-01-07T23:17:35.000Z,101254.38
2023-01-07T23:22:35.000Z,101257.61
2023-01-07T23:27:35.000Z,101259.7
2023-01-07T23:32:35.000Z,101260.14
2023-01-07T23:42:35.000Z,101271.51
2023-01-07T23:47:35.000Z,101264.78
2023-01-07T23:52:35.000Z,101262.77
2023-01-07T23:57:35.000Z,101262.77
